Pensacola, FL (32507)

2:14 PM CDT on September 01, 2014 (GMT -0500)
Coral Creek | Change Station
CLOSE
Current Station
Personal Weather Station
Location: Pensacola, FL
Elevation: 33 ft
Nearby Weather Stations
Active Advisory: Coastal Hazard Statement

Elev 33 ft 30.37 °N, 87.35 °W | Updated 14 seconds ago

Clear
Clear
91.0 °F
Feels Like 105 °F
N
2.0
Wind Variable Wind from SE
Gusts 8.0 mph

Today
High -- | Low -- °F
--% Chance of Precip.
Yesterday
High -- | Low -- °F
Precip. -- in
6:26 AM 7:12 PM
Waxing Crescent, 43% visible
Pressure 30.09 in
Visibility 10.0 miles
Clouds Clear
Heat Index 105 °F
Dew Point 78 °F
Humidity 65%
Rainfall 0.00 in
Snow Depth Not available.
UV 11 out of 12
Pollen 8.60 out of 12
PM2.5 Moderate
Flu Activity Not available.
METAR KNPA 011856Z AUTO 14010KT 10SM CLR 33/24 A3008 RMK AO2 SLP187 T03280244

More Conditions Fewer Conditions

Pressure 30.09 in
Visibility 10.0 miles
Clouds Clear
Heat Index 105 °F
Dew Point 78 °F
Humidity 65%
Rainfall 0.00 in
Snow Depth Not available.
UV 11 out of 12
Pollen 8.60 out of 12
PM2.5 Moderate
Flu Activity Not available.
METAR KNPA 011856Z AUTO 14010KT 10SM CLR 33/24 A3008 RMK AO2 SLP187 T03280244

More Conditions Fewer Conditions

10-Day Weather Forecast

Almanac

Astronomy

Sep. 01, 2014 Rise Set
Actual Time 6:26 AM CDT 7:12 PM CDT
Civil Twilight 6:01 AM CDT 7:36 PM CDT
Nautical Twilight 5:32 AM CDT 8:05 PM CDT
Astronomical Twilight 5:03 AM CDT 8:34 PM CDT
Moon 12:43 PM CDT 11:41 PM CDT
Length of Visible Light 13h 34m
Length of Day
12h 46m
Tomorrow will be 1m 45s shorter.
Waxing Crescent, 43% of the Moon is Illuminated
Today
Waxing Crescent
Sep 2
First Quarter
Sep 8
Full
Sep 15
Last Quarter
Sep 24
New

Today's Extremes

State Highs State Lows

Community

WunderPhotos

Upload Photos

1,749,373 photos uploaded!

WunderBlogs® & News

Nearby

Air Quality

  Air Quality AQ Index Pollutant
Yesterday Moderate
PM2.5
Yesterday Good
OZONE
Current Moderate
PM2.5
Monday Good
OZONE
Monday Good
PM2.5
Tuesday Good
OZONE
Tuesday Good
PM2.5

Snow Depth

Station Depth Elevation
No new snow has been reported.

Earthquake Activity

City Distance Mag. Time & Date
No recent earthquake activity has been reported nearby.
Minimum magnitude displayed is 2.5.

Coastal Water Temperatures

Place Temperature
No Stations Reporting

Nearby Weather Stations